sensor_id;sensor_type;location;lat;lon;timestamp;P1;durP1;ratioP1;P2;durP2;ratioP2
73898;SDS011;62234;50.892;12.724;2023-06-22T00:01:50;9.30;;;6.47;;
73898;SDS011;62234;50.892;12.724;2023-06-22T00:04:15;6.95;;;5.70;;
73898;SDS011;62234;50.892;12.724;2023-06-22T00:06:41;8.40;;;5.63;;
73898;SDS011;62234;50.892;12.724;2023-06-22T00:09:07;7.97;;;5.72;;
73898;SDS011;62234;50.892;12.724;2023-06-22T00:11:35;7.88;;;5.70;;
73898;SDS011;62234;50.892;12.724;2023-06-22T00:14:01;6.88;;;6.18;;
73898;SDS011;62234;50.892;12.724;2023-06-22T00:16:27;10.02;;;5.88;;
73898;SDS011;62234;50.892;12.724;2023-06-22T00:18:53;9.90;;;6.35;;
73898;SDS011;62234;50.892;12.724;2023-06-22T00:21:18;11.43;;;6.50;;
73898;SDS011;62234;50.892;12.724;2023-06-22T00:23:48;10.43;;;6.40;;
73898;SDS011;62234;50.892;12.724;2023-06-22T00:26:14;7.95;;;5.43;;
73898;SDS011;62234;50.892;12.724;2023-06-22T00:28:40;10.77;;;6.72;;
73898;SDS011;62234;50.892;12.724;2023-06-22T00:31:06;8.57;;;6.10;;
73898;SDS011;62234;50.892;12.724;2023-06-22T00:33:32;10.40;;;6.00;;
73898;SDS011;62234;50.892;12.724;2023-06-22T00:35:58;8.35;;;6.47;;
73898;SDS011;62234;50.892;12.724;2023-06-22T00:38:24;12.50;;;7.10;;
73898;SDS011;62234;50.892;12.724;2023-06-22T00:40:50;8.02;;;5.88;;
73898;SDS011;62234;50.892;12.724;2023-06-22T00:43:16;7.22;;;5.70;;
73898;SDS011;62234;50.892;12.724;2023-06-22T00:45:42;8.40;;;6.32;;
73898;SDS011;62234;50.892;12.724;2023-06-22T00:48:07;13.55;;;6.72;;
73898;SDS011;62234;50.892;12.724;2023-06-22T00:50:34;8.07;;;6.63;;
73898;SDS011;62234;50.892;12.724;2023-06-22T00:53:03;9.45;;;6.20;;
73898;SDS011;62234;50.892;12.724;2023-06-22T00:55:33;9.25;;;6.28;;
73898;SDS011;62234;50.892;12.724;2023-06-22T00:58:02;12.77;;;6.80;;
73898;SDS011;62234;50.892;12.724;2023-06-22T01:00:30;6.85;;;5.97;;
73898;SDS011;62234;50.892;12.724;2023-06-22T01:02:57;7.28;;;6.35;;
73898;SDS011;62234;50.892;12.724;2023-06-22T01:05:23;11.90;;;5.70;;
73898;SDS011;62234;50.892;12.724;2023-06-22T01:08:06;9.38;;;5.63;;
73898;SDS011;62234;50.892;12.724;2023-06-22T01:13:25;9.10;;;6.15;;
73898;SDS011;62234;50.892;12.724;2023-06-22T01:16:37;11.27;;;6.13;;
73898;SDS011;62234;50.892;12.724;2023-06-22T01:18:43;10.48;;;6.13;;
73898;SDS011;62234;50.892;12.724;2023-06-22T01:21:10;10.57;;;6.30;;
73898;SDS011;62234;50.892;12.724;2023-06-22T01:23:42;6.05;;;5.43;;
73898;SDS011;62234;50.892;12.724;2023-06-22T01:26:17;7.00;;;5.97;;
73898;SDS011;62234;50.892;12.724;2023-06-22T01:28:47;7.95;;;5.75;;
73898;SDS011;62234;50.892;12.724;2023-06-22T01:33:41;7.63;;;5.50;;
73898;SDS011;62234;50.892;12.724;2023-06-22T01:36:07;7.03;;;5.20;;
73898;SDS011;62234;50.892;12.724;2023-06-22T01:38:34;11.20;;;6.45;;
73898;SDS011;62234;50.892;12.724;2023-06-22T01:41:01;8.32;;;5.70;;
73898;SDS011;62234;50.892;12.724;2023-06-22T01:43:28;7.10;;;5.63;;
73898;SDS011;62234;50.892;12.724;2023-06-22T01:45:58;7.65;;;5.90;;
73898;SDS011;62234;50.892;12.724;2023-06-22T01:48:24;7.55;;;6.00;;
73898;SDS011;62234;50.892;12.724;2023-06-22T01:50:51;7.10;;;5.50;;
73898;SDS011;62234;50.892;12.724;2023-06-22T01:53:17;8.27;;;5.57;;
73898;SDS011;62234;50.892;12.724;2023-06-22T01:55:43;8.48;;;5.88;;
73898;SDS011;62234;50.892;12.724;2023-06-22T01:58:09;6.82;;;5.60;;
73898;SDS011;62234;50.892;12.724;2023-06-22T02:00:36;9.57;;;5.80;;
73898;SDS011;62234;50.892;12.724;2023-06-22T02:03:05;8.43;;;5.88;;
73898;SDS011;62234;50.892;12.724;2023-06-22T02:05:34;8.85;;;5.88;;
73898;SDS011;62234;50.892;12.724;2023-06-22T02:08:04;11.60;;;5.25;;
73898;SDS011;62234;50.892;12.724;2023-06-22T02:10:32;8.88;;;5.30;;
73898;SDS011;62234;50.892;12.724;2023-06-22T02:13:00;10.00;;;5.78;;
73898;SDS011;62234;50.892;12.724;2023-06-22T02:15:26;6.93;;;5.15;;
73898;SDS011;62234;50.892;12.724;2023-06-22T02:17:52;7.82;;;5.43;;
73898;SDS011;62234;50.892;12.724;2023-06-22T02:20:18;8.00;;;5.47;;
73898;SDS011;62234;50.892;12.724;2023-06-22T02:22:45;8.77;;;5.63;;
73898;SDS011;62234;50.892;12.724;2023-06-22T02:25:11;11.35;;;6.05;;
73898;SDS011;62234;50.892;12.724;2023-06-22T02:27:37;8.75;;;5.63;;
73898;SDS011;62234;50.892;12.724;2023-06-22T02:30:06;10.20;;;6.13;;
73898;SDS011;62234;50.892;12.724;2023-06-22T02:32:32;8.55;;;5.90;;
73898;SDS011;62234;50.892;12.724;2023-06-22T02:34:59;13.23;;;6.10;;
73898;SDS011;62234;50.892;12.724;2023-06-22T02:37:25;9.98;;;6.68;;
73898;SDS011;62234;50.892;12.724;2023-06-22T02:39:54;8.07;;;5.82;;
73898;SDS011;62234;50.892;12.724;2023-06-22T02:42:20;8.95;;;6.00;;
73898;SDS011;62234;50.892;12.724;2023-06-22T02:44:46;9.07;;;5.60;;
73898;SDS011;62234;50.892;12.724;2023-06-22T02:47:12;8.18;;;5.85;;
73898;SDS011;62234;50.892;12.724;2023-06-22T02:49:38;11.48;;;5.85;;
73898;SDS011;62234;50.892;12.724;2023-06-22T02:52:04;11.80;;;5.57;;
73898;SDS011;62234;50.892;12.724;2023-06-22T02:54:30;10.43;;;5.38;;
73898;SDS011;62234;50.892;12.724;2023-06-22T02:56:56;8.30;;;4.88;;
73898;SDS011;62234;50.892;12.724;2023-06-22T02:59:22;11.35;;;5.70;;
73898;SDS011;62234;50.892;12.724;2023-06-22T03:01:49;7.00;;;5.40;;
73898;SDS011;62234;50.892;12.724;2023-06-22T03:04:15;9.88;;;5.80;;
73898;SDS011;62234;50.892;12.724;2023-06-22T03:06:41;8.52;;;6.20;;
73898;SDS011;62234;50.892;12.724;2023-06-22T03:09:07;6.78;;;5.80;;
73898;SDS011;62234;50.892;12.724;2023-06-22T03:11:33;7.13;;;5.32;;
73898;SDS011;62234;50.892;12.724;2023-06-22T03:13:59;12.23;;;5.72;;
73898;SDS011;62234;50.892;12.724;2023-06-22T03:16:25;9.57;;;5.93;;
73898;SDS011;62234;50.892;12.724;2023-06-22T03:18:51;6.90;;;5.20;;
73898;SDS011;62234;50.892;12.724;2023-06-22T03:21:21;9.60;;;5.35;;
73898;SDS011;62234;50.892;12.724;2023-06-22T03:23:47;7.43;;;5.32;;
73898;SDS011;62234;50.892;12.724;2023-06-22T03:26:16;7.35;;;5.00;;
73898;SDS011;62234;50.892;12.724;2023-06-22T03:28:42;8.82;;;5.07;;
73898;SDS011;62234;50.892;12.724;2023-06-22T03:31:08;8.55;;;5.93;;
73898;SDS011;62234;50.892;12.724;2023-06-22T03:33:34;9.48;;;5.55;;
73898;SDS011;62234;50.892;12.724;2023-06-22T03:36:00;8.32;;;5.13;;
73898;SDS011;62234;50.892;12.724;2023-06-22T03:38:25;8.07;;;5.47;;
73898;SDS011;62234;50.892;12.724;2023-06-22T03:40:51;8.35;;;5.75;;
73898;SDS011;62234;50.892;12.724;2023-06-22T03:43:17;8.85;;;5.40;;
73898;SDS011;62234;50.892;12.724;2023-06-22T03:45:43;7.68;;;5.40;;
73898;SDS011;62234;50.892;12.724;2023-06-22T03:48:10;7.95;;;5.75;;
73898;SDS011;62234;50.892;12.724;2023-06-22T03:50:36;10.52;;;5.43;;
73898;SDS011;62234;50.892;12.724;2023-06-22T03:53:02;8.43;;;5.78;;
73898;SDS011;62234;50.892;12.724;2023-06-22T03:55:28;12.20;;;5.78;;
73898;SDS011;62234;50.892;12.724;2023-06-22T03:57:54;6.85;;;4.80;;
73898;SDS011;62234;50.892;12.724;2023-06-22T04:00:22;7.45;;;5.40;;
73898;SDS011;62234;50.892;12.724;2023-06-22T04:02:48;10.60;;;5.65;;
73898;SDS011;62234;50.892;12.724;2023-06-22T04:05:13;11.63;;;5.35;;
73898;SDS011;62234;50.892;12.724;2023-06-22T04:07:39;7.93;;;5.40;;
73898;SDS011;62234;50.892;12.724;2023-06-22T04:10:06;9.43;;;5.13;;
73898;SDS011;62234;50.892;12.724;2023-06-22T04:12:32;9.60;;;5.00;;
73898;SDS011;62234;50.892;12.724;2023-06-22T04:14:58;12.65;;;5.82;;
73898;SDS011;62234;50.892;12.724;2023-06-22T04:17:24;9.52;;;5.43;;
73898;SDS011;62234;50.892;12.724;2023-06-22T04:19:50;11.05;;;5.38;;
73898;SDS011;62234;50.892;12.724;2023-06-22T04:22:16;9.75;;;4.82;;
73898;SDS011;62234;50.892;12.724;2023-06-22T04:24:42;7.90;;;5.95;;
73898;SDS011;62234;50.892;12.724;2023-06-22T04:27:08;7.95;;;5.15;;
73898;SDS011;62234;50.892;12.724;2023-06-22T04:29:34;10.65;;;5.40;;
73898;SDS011;62234;50.892;12.724;2023-06-22T04:32:00;11.60;;;5.50;;
73898;SDS011;62234;50.892;12.724;2023-06-22T04:34:30;9.18;;;5.40;;
73898;SDS011;62234;50.892;12.724;2023-06-22T04:36:56;12.98;;;5.72;;
73898;SDS011;62234;50.892;12.724;2023-06-22T04:39:21;8.45;;;5.45;;
73898;SDS011;62234;50.892;12.724;2023-06-22T04:41:48;16.88;;;6.10;;
73898;SDS011;62234;50.892;12.724;2023-06-22T04:44:16;9.52;;;5.38;;
73898;SDS011;62234;50.892;12.724;2023-06-22T04:46:49;9.60;;;5.13;;
73898;SDS011;62234;50.892;12.724;2023-06-22T04:49:19;6.50;;;5.40;;
73898;SDS011;62234;50.892;12.724;2023-06-22T04:51:45;9.43;;;5.38;;
73898;SDS011;62234;50.892;12.724;2023-06-22T04:54:11;10.32;;;5.47;;
73898;SDS011;62234;50.892;12.724;2023-06-22T04:56:37;7.22;;;4.70;;
73898;SDS011;62234;50.892;12.724;2023-06-22T04:59:06;6.80;;;4.80;;
73898;SDS011;62234;50.892;12.724;2023-06-22T05:01:32;8.45;;;5.28;;
73898;SDS011;62234;50.892;12.724;2023-06-22T05:04:00;9.80;;;5.13;;
73898;SDS011;62234;50.892;12.724;2023-06-22T05:06:28;8.02;;;5.20;;
73898;SDS011;62234;50.892;12.724;2023-06-22T05:08:54;7.35;;;4.53;;
73898;SDS011;62234;50.892;12.724;2023-06-22T05:11:26;7.55;;;4.82;;
73898;SDS011;62234;50.892;12.724;2023-06-22T05:13:53;6.60;;;5.32;;
73898;SDS011;62234;50.892;12.724;2023-06-22T05:16:19;6.38;;;4.97;;
73898;SDS011;62234;50.892;12.724;2023-06-22T05:18:49;7.45;;;5.30;;
73898;SDS011;62234;50.892;12.724;2023-06-22T05:21:15;11.25;;;4.70;;
73898;SDS011;62234;50.892;12.724;2023-06-22T05:23:41;5.97;;;5.13;;
73898;SDS011;62234;50.892;12.724;2023-06-22T05:26:06;5.68;;;4.57;;
73898;SDS011;62234;50.892;12.724;2023-06-22T05:28:34;7.32;;;5.00;;
73898;SDS011;62234;50.892;12.724;2023-06-22T05:31:00;8.93;;;4.55;;
73898;SDS011;62234;50.892;12.724;2023-06-22T05:33:26;6.68;;;5.40;;
73898;SDS011;62234;50.892;12.724;2023-06-22T05:35:52;9.65;;;5.80;;
73898;SDS011;62234;50.892;12.724;2023-06-22T05:38:18;10.02;;;5.28;;
73898;SDS011;62234;50.892;12.724;2023-06-22T05:40:44;6.25;;;4.90;;
73898;SDS011;62234;50.892;12.724;2023-06-22T05:43:10;6.57;;;5.57;;
73898;SDS011;62234;50.892;12.724;2023-06-22T05:45:36;10.15;;;5.28;;
73898;SDS011;62234;50.892;12.724;2023-06-22T05:48:02;6.35;;;5.30;;
73898;SDS011;62234;50.892;12.724;2023-06-22T05:50:28;9.27;;;4.95;;
73898;SDS011;62234;50.892;12.724;2023-06-22T05:52:54;6.25;;;5.57;;
73898;SDS011;62234;50.892;12.724;2023-06-22T05:55:20;8.10;;;5.90;;
73898;SDS011;62234;50.892;12.724;2023-06-22T05:57:46;11.23;;;5.57;;
73898;SDS011;62234;50.892;12.724;2023-06-22T06:00:12;8.73;;;5.20;;
73898;SDS011;62234;50.892;12.724;2023-06-22T06:02:38;8.23;;;5.40;;
73898;SDS011;62234;50.892;12.724;2023-06-22T06:05:09;9.40;;;5.40;;
73898;SDS011;62234;50.892;12.724;2023-06-22T06:07:35;6.13;;;5.03;;
73898;SDS011;62234;50.892;12.724;2023-06-22T06:10:02;6.03;;;5.40;;
73898;SDS011;62234;50.892;12.724;2023-06-22T06:12:29;7.07;;;5.25;;
73898;SDS011;62234;50.892;12.724;2023-06-22T06:14:55;8.43;;;6.30;;
73898;SDS011;62234;50.892;12.724;2023-06-22T06:17:21;8.88;;;6.03;;
73898;SDS011;62234;50.892;12.724;2023-06-22T06:19:47;6.95;;;5.38;;
73898;SDS011;62234;50.892;12.724;2023-06-22T06:22:13;6.68;;;5.63;;
73898;SDS011;62234;50.892;12.724;2023-06-22T06:24:39;8.38;;;6.63;;
73898;SDS011;62234;50.892;12.724;2023-06-22T06:27:05;6.63;;;5.90;;
73898;SDS011;62234;50.892;12.724;2023-06-22T06:29:31;8.55;;;7.07;;
73898;SDS011;62234;50.892;12.724;2023-06-22T06:31:57;8.20;;;7.40;;
73898;SDS011;62234;50.892;12.724;2023-06-22T06:34:23;7.75;;;6.90;;
73898;SDS011;62234;50.892;12.724;2023-06-22T06:36:49;8.00;;;6.45;;
73898;SDS011;62234;50.892;12.724;2023-06-22T06:39:15;7.40;;;6.68;;
73898;SDS011;62234;50.892;12.724;2023-06-22T06:41:41;8.40;;;6.53;;
73898;SDS011;62234;50.892;12.724;2023-06-22T06:44:07;8.43;;;6.50;;
73898;SDS011;62234;50.892;12.724;2023-06-22T06:46:33;7.22;;;6.60;;
73898;SDS011;62234;50.892;12.724;2023-06-22T06:48:59;8.45;;;6.55;;
73898;SDS011;62234;50.892;12.724;2023-06-22T06:51:25;7.95;;;6.07;;
73898;SDS011;62234;50.892;12.724;2023-06-22T06:53:51;7.10;;;6.25;;
73898;SDS011;62234;50.892;12.724;2023-06-22T06:56:17;8.40;;;5.80;;
73898;SDS011;62234;50.892;12.724;2023-06-22T06:58:42;5.95;;;5.45;;
73898;SDS011;62234;50.892;12.724;2023-06-22T07:01:10;8.05;;;6.05;;
73898;SDS011;62234;50.892;12.724;2023-06-22T07:03:36;8.02;;;6.40;;
73898;SDS011;62234;50.892;12.724;2023-06-22T07:06:02;6.45;;;5.60;;
73898;SDS011;62234;50.892;12.724;2023-06-22T07:08:28;6.47;;;5.80;;
73898;SDS011;62234;50.892;12.724;2023-06-22T07:10:54;6.03;;;5.47;;
73898;SDS011;62234;50.892;12.724;2023-06-22T07:13:20;6.20;;;5.50;;
73898;SDS011;62234;50.892;12.724;2023-06-22T07:15:47;6.53;;;5.88;;
73898;SDS011;62234;50.892;12.724;2023-06-22T07:18:12;6.05;;;5.45;;
73898;SDS011;62234;50.892;12.724;2023-06-22T07:20:38;7.22;;;5.78;;
73898;SDS011;62234;50.892;12.724;2023-06-22T07:23:06;6.03;;;5.43;;
73898;SDS011;62234;50.892;12.724;2023-06-22T07:25:31;5.82;;;5.10;;
73898;SDS011;62234;50.892;12.724;2023-06-22T07:27:58;9.00;;;5.38;;
73898;SDS011;62234;50.892;12.724;2023-06-22T07:30:26;8.20;;;4.97;;
73898;SDS011;62234;50.892;12.724;2023-06-22T07:32:52;8.13;;;5.65;;
73898;SDS011;62234;50.892;12.724;2023-06-22T07:35:18;6.30;;;5.70;;
73898;SDS011;62234;50.892;12.724;2023-06-22T07:37:44;6.22;;;5.22;;
73898;SDS011;62234;50.892;12.724;2023-06-22T07:40:10;5.50;;;4.95;;
73898;SDS011;62234;50.892;12.724;2023-06-22T07:42:36;6.03;;;5.43;;
73898;SDS011;62234;50.892;12.724;2023-06-22T07:45:02;8.02;;;5.55;;
73898;SDS011;62234;50.892;12.724;2023-06-22T07:47:29;6.00;;;5.40;;
73898;SDS011;62234;50.892;12.724;2023-06-22T07:49:55;5.90;;;5.30;;
73898;SDS011;62234;50.892;12.724;2023-06-22T07:52:23;5.95;;;5.20;;
73898;SDS011;62234;50.892;12.724;2023-06-22T07:54:49;5.22;;;4.72;;
73898;SDS011;62234;50.892;12.724;2023-06-22T07:57:15;6.18;;;5.38;;
73898;SDS011;62234;50.892;12.724;2023-06-22T07:59:41;7.22;;;5.10;;
73898;SDS011;62234;50.892;12.724;2023-06-22T08:02:07;5.75;;;5.25;;
73898;SDS011;62234;50.892;12.724;2023-06-22T08:04:34;6.30;;;5.55;;
73898;SDS011;62234;50.892;12.724;2023-06-22T08:07:00;5.50;;;5.00;;
73898;SDS011;62234;50.892;12.724;2023-06-22T08:09:30;5.57;;;5.15;;
73898;SDS011;62234;50.892;12.724;2023-06-22T08:11:57;5.53;;;5.03;;
73898;SDS011;62234;50.892;12.724;2023-06-22T08:14:23;5.35;;;4.85;;
73898;SDS011;62234;50.892;12.724;2023-06-22T08:16:49;5.60;;;4.78;;
73898;SDS011;62234;50.892;12.724;2023-06-22T08:19:15;5.85;;;5.10;;
73898;SDS011;62234;50.892;12.724;2023-06-22T08:21:41;6.00;;;5.40;;
73898;SDS011;62234;50.892;12.724;2023-06-22T08:24:07;5.22;;;4.72;;
73898;SDS011;62234;50.892;12.724;2023-06-22T08:26:33;5.95;;;5.13;;
73898;SDS011;62234;50.892;12.724;2023-06-22T08:29:02;6.20;;;5.00;;
73898;SDS011;62234;50.892;12.724;2023-06-22T08:31:28;5.88;;;4.93;;
73898;SDS011;62234;50.892;12.724;2023-06-22T08:33:53;5.47;;;5.05;;
73898;SDS011;62234;50.892;12.724;2023-06-22T08:36:19;5.00;;;4.50;;
73898;SDS011;62234;50.892;12.724;2023-06-22T08:38:45;5.50;;;5.00;;
73898;SDS011;62234;50.892;12.724;2023-06-22T08:43:41;5.13;;;4.63;;
73898;SDS011;62234;50.892;12.724;2023-06-22T08:46:08;5.95;;;4.82;;
73898;SDS011;62234;50.892;12.724;2023-06-22T08:48:34;5.75;;;5.15;;
73898;SDS011;62234;50.892;12.724;2023-06-22T08:51:00;5.40;;;4.90;;
73898;SDS011;62234;50.892;12.724;2023-06-22T08:53:25;6.13;;;5.53;;
73898;SDS011;62234;50.892;12.724;2023-06-22T08:55:51;5.75;;;5.05;;
73898;SDS011;62234;50.892;12.724;2023-06-22T08:58:17;8.60;;;4.97;;
73898;SDS011;62234;50.892;12.724;2023-06-22T09:00:45;5.00;;;4.50;;
73898;SDS011;62234;50.892;12.724;2023-06-22T09:03:11;8.55;;;5.10;;
73898;SDS011;62234;50.892;12.724;2023-06-22T09:05:37;5.75;;;4.70;;
73898;SDS011;62234;50.892;12.724;2023-06-22T09:08:03;5.75;;;5.13;;
73898;SDS011;62234;50.892;12.724;2023-06-22T09:10:29;5.78;;;5.18;;
73898;SDS011;62234;50.892;12.724;2023-06-22T09:12:55;5.13;;;4.68;;
73898;SDS011;62234;50.892;12.724;2023-06-22T09:15:21;5.55;;;4.85;;
73898;SDS011;62234;50.892;12.724;2023-06-22T09:17:47;5.47;;;4.97;;
73898;SDS011;62234;50.892;12.724;2023-06-22T09:20:12;5.85;;;5.35;;
73898;SDS011;62234;50.892;12.724;2023-06-22T09:22:38;4.68;;;4.32;;
73898;SDS011;62234;50.892;12.724;2023-06-22T09:25:04;5.05;;;4.55;;
73898;SDS011;62234;50.892;12.724;2023-06-22T09:27:30;5.13;;;4.70;;
73898;SDS011;62234;50.892;12.724;2023-06-22T09:29:56;5.63;;;4.72;;
73898;SDS011;62234;50.892;12.724;2023-06-22T09:32:23;5.82;;;5.25;;
73898;SDS011;62234;50.892;12.724;2023-06-22T09:34:50;5.45;;;4.95;;
73898;SDS011;62234;50.892;12.724;2023-06-22T09:37:16;5.40;;;4.88;;
73898;SDS011;62234;50.892;12.724;2023-06-22T09:39:42;5.85;;;5.00;;
73898;SDS011;62234;50.892;12.724;2023-06-22T09:42:08;6.32;;;4.97;;
73898;SDS011;62234;50.892;12.724;2023-06-22T09:44:34;5.15;;;4.72;;
73898;SDS011;62234;50.892;12.724;2023-06-22T09:47:00;5.85;;;5.03;;
73898;SDS011;62234;50.892;12.724;2023-06-22T09:49:26;5.38;;;4.45;;
73898;SDS011;62234;50.892;12.724;2023-06-22T09:51:51;5.60;;;5.10;;
73898;SDS011;62234;50.892;12.724;2023-06-22T09:54:17;5.45;;;4.95;;
73898;SDS011;62234;50.892;12.724;2023-06-22T09:56:43;6.35;;;4.95;;
73898;SDS011;62234;50.892;12.724;2023-06-22T09:59:09;6.38;;;4.70;;
73898;SDS011;62234;50.892;12.724;2023-06-22T10:01:35;5.50;;;5.00;;
73898;SDS011;62234;50.892;12.724;2023-06-22T10:04:01;6.05;;;4.32;;
73898;SDS011;62234;50.892;12.724;2023-06-22T10:06:27;5.80;;;4.97;;
73898;SDS011;62234;50.892;12.724;2023-06-22T10:08:53;5.85;;;4.78;;
73898;SDS011;62234;50.892;12.724;2023-06-22T10:11:19;5.43;;;4.93;;
73898;SDS011;62234;50.892;12.724;2023-06-22T10:13:47;6.65;;;4.75;;
73898;SDS011;62234;50.892;12.724;2023-06-22T10:16:13;5.32;;;4.82;;
73898;SDS011;62234;50.892;12.724;2023-06-22T10:18:39;5.35;;;4.78;;
73898;SDS011;62234;50.892;12.724;2023-06-22T10:21:05;6.18;;;4.68;;
73898;SDS011;62234;50.892;12.724;2023-06-22T10:23:31;5.60;;;4.82;;
73898;SDS011;62234;50.892;12.724;2023-06-22T10:25:57;8.27;;;5.05;;
73898;SDS011;62234;50.892;12.724;2023-06-22T10:28:23;5.75;;;5.15;;
73898;SDS011;62234;50.892;12.724;2023-06-22T10:30:49;6.15;;;5.10;;
73898;SDS011;62234;50.892;12.724;2023-06-22T10:33:15;5.40;;;4.85;;
73898;SDS011;62234;50.892;12.724;2023-06-22T10:35:40;5.65;;;5.07;;
73898;SDS011;62234;50.892;12.724;2023-06-22T10:38:06;5.60;;;5.10;;
73898;SDS011;62234;50.892;12.724;2023-06-22T10:40:33;5.35;;;4.85;;
73898;SDS011;62234;50.892;12.724;2023-06-22T10:42:59;8.40;;;5.00;;
73898;SDS011;62234;50.892;12.724;2023-06-22T10:45:25;5.55;;;5.05;;
73898;SDS011;62234;50.892;12.724;2023-06-22T10:47:52;6.47;;;5.53;;
73898;SDS011;62234;50.892;12.724;2023-06-22T10:50:18;7.50;;;4.78;;
73898;SDS011;62234;50.892;12.724;2023-06-22T10:52:45;7.93;;;5.70;;
73898;SDS011;62234;50.892;12.724;2023-06-22T10:55:11;5.70;;;5.10;;
73898;SDS011;62234;50.892;12.724;2023-06-22T10:57:37;6.80;;;5.70;;
73898;SDS011;62234;50.892;12.724;2023-06-22T11:02:33;5.28;;;4.88;;
73898;SDS011;62234;50.892;12.724;2023-06-22T11:04:59;6.32;;;5.72;;
73898;SDS011;62234;50.892;12.724;2023-06-22T11:07:25;5.85;;;5.25;;
73898;SDS011;62234;50.892;12.724;2023-06-22T11:09:53;8.93;;;5.82;;
73898;SDS011;62234;50.892;12.724;2023-06-22T11:12:19;7.13;;;5.13;;
73898;SDS011;62234;50.892;12.724;2023-06-22T11:14:45;5.95;;;5.35;;
73898;SDS011;62234;50.892;12.724;2023-06-22T11:17:11;5.88;;;5.18;;
73898;SDS011;62234;50.892;12.724;2023-06-22T11:19:37;5.85;;;5.20;;
73898;SDS011;62234;50.892;12.724;2023-06-22T11:22:03;6.72;;;5.93;;
73898;SDS011;62234;50.892;12.724;2023-06-22T11:24:29;6.07;;;5.53;;
73898;SDS011;62234;50.892;12.724;2023-06-22T11:26:55;6.05;;;5.45;;
73898;SDS011;62234;50.892;12.724;2023-06-22T11:29:21;6.28;;;5.63;;
73898;SDS011;62234;50.892;12.724;2023-06-22T11:31:46;7.20;;;6.00;;
73898;SDS011;62234;50.892;12.724;2023-06-22T11:34:12;5.80;;;5.30;;
73898;SDS011;62234;50.892;12.724;2023-06-22T11:36:39;6.72;;;5.55;;
73898;SDS011;62234;50.892;12.724;2023-06-22T11:39:05;6.18;;;5.40;;
73898;SDS011;62234;50.892;12.724;2023-06-22T11:41:31;7.05;;;6.25;;
73898;SDS011;62234;50.892;12.724;2023-06-22T11:43:57;6.82;;;5.82;;
73898;SDS011;62234;50.892;12.724;2023-06-22T11:46:22;7.78;;;6.40;;
73898;SDS011;62234;50.892;12.724;2023-06-22T11:48:48;7.57;;;5.95;;
73898;SDS011;62234;50.892;12.724;2023-06-22T11:51:14;7.05;;;5.82;;
73898;SDS011;62234;50.892;12.724;2023-06-22T11:53:40;8.85;;;5.93;;
73898;SDS011;62234;50.892;12.724;2023-06-22T11:56:06;8.00;;;6.63;;
73898;SDS011;62234;50.892;12.724;2023-06-22T11:58:32;6.32;;;5.72;;
73898;SDS011;62234;50.892;12.724;2023-06-22T12:00:58;6.10;;;5.50;;
73898;SDS011;62234;50.892;12.724;2023-06-22T12:03:24;6.03;;;5.22;;
73898;SDS011;62234;50.892;12.724;2023-06-22T12:05:50;6.45;;;5.57;;
73898;SDS011;62234;50.892;12.724;2023-06-22T12:08:17;7.15;;;5.68;;
73898;SDS011;62234;50.892;12.724;2023-06-22T12:10:43;6.38;;;5.78;;
73898;SDS011;62234;50.892;12.724;2023-06-22T12:13:09;8.32;;;5.55;;
73898;SDS011;62234;50.892;12.724;2023-06-22T12:15:35;6.20;;;5.43;;
73898;SDS011;62234;50.892;12.724;2023-06-22T12:18:01;6.05;;;5.55;;
73898;SDS011;62234;50.892;12.724;2023-06-22T12:20:27;6.50;;;5.50;;
73898;SDS011;62234;50.892;12.724;2023-06-22T12:22:53;6.45;;;5.72;;
73898;SDS011;62234;50.892;12.724;2023-06-22T12:25:21;6.28;;;5.60;;
73898;SDS011;62234;50.892;12.724;2023-06-22T12:27:47;5.60;;;4.93;;
73898;SDS011;62234;50.892;12.724;2023-06-22T12:30:13;7.82;;;5.60;;
73898;SDS011;62234;50.892;12.724;2023-06-22T12:32:39;6.68;;;5.50;;
73898;SDS011;62234;50.892;12.724;2023-06-22T12:35:05;7.00;;;5.55;;
73898;SDS011;62234;50.892;12.724;2023-06-22T12:37:36;6.07;;;5.47;;
73898;SDS011;62234;50.892;12.724;2023-06-22T12:40:02;6.78;;;5.72;;
73898;SDS011;62234;50.892;12.724;2023-06-22T12:42:29;6.22;;;5.63;;
73898;SDS011;62234;50.892;12.724;2023-06-22T12:44:54;5.97;;;5.35;;
73898;SDS011;62234;50.892;12.724;2023-06-22T12:47:20;7.80;;;5.95;;
73898;SDS011;62234;50.892;12.724;2023-06-22T12:49:46;8.55;;;5.75;;
73898;SDS011;62234;50.892;12.724;2023-06-22T12:52:12;6.43;;;5.57;;
73898;SDS011;62234;50.892;12.724;2023-06-22T12:54:38;5.78;;;5.22;;
73898;SDS011;62234;50.892;12.724;2023-06-22T12:57:04;8.73;;;5.90;;
73898;SDS011;62234;50.892;12.724;2023-06-22T12:59:30;6.45;;;5.35;;
73898;SDS011;62234;50.892;12.724;2023-06-22T13:01:56;7.05;;;6.35;;
73898;SDS011;62234;50.892;12.724;2023-06-22T13:04:22;5.45;;;4.95;;
73898;SDS011;62234;50.892;12.724;2023-06-22T13:06:48;6.38;;;5.72;;
73898;SDS011;62234;50.892;12.724;2023-06-22T13:09:14;5.88;;;5.38;;
73898;SDS011;62234;50.892;12.724;2023-06-22T13:11:41;6.70;;;5.63;;
73898;SDS011;62234;50.892;12.724;2023-06-22T13:14:07;6.75;;;5.00;;
73898;SDS011;62234;50.892;12.724;2023-06-22T13:16:32;5.95;;;5.35;;
73898;SDS011;62234;50.892;12.724;2023-06-22T13:18:58;5.60;;;5.10;;
73898;SDS011;62234;50.892;12.724;2023-06-22T13:21:24;5.53;;;5.03;;
73898;SDS011;62234;50.892;12.724;2023-06-22T13:23:50;5.78;;;5.13;;
73898;SDS011;62234;50.892;12.724;2023-06-22T13:26:16;6.25;;;5.15;;
73898;SDS011;62234;50.892;12.724;2023-06-22T13:28:42;6.30;;;5.20;;
73898;SDS011;62234;50.892;12.724;2023-06-22T13:31:08;5.95;;;4.97;;
73898;SDS011;62234;50.892;12.724;2023-06-22T13:33:34;6.88;;;5.28;;
73898;SDS011;62234;50.892;12.724;2023-06-22T13:36:00;5.28;;;4.78;;
73898;SDS011;62234;50.892;12.724;2023-06-22T13:38:28;5.57;;;5.03;;
73898;SDS011;62234;50.892;12.724;2023-06-22T13:40:55;7.22;;;5.40;;
73898;SDS011;62234;50.892;12.724;2023-06-22T13:43:23;5.53;;;5.03;;
73898;SDS011;62234;50.892;12.724;2023-06-22T13:45:49;7.65;;;5.45;;
73898;SDS011;62234;50.892;12.724;2023-06-22T13:48:15;5.35;;;4.82;;
73898;SDS011;62234;50.892;12.724;2023-06-22T13:50:41;5.50;;;5.00;;
73898;SDS011;62234;50.892;12.724;2023-06-22T13:53:07;6.20;;;5.32;;
73898;SDS011;62234;50.892;12.724;2023-06-22T13:55:33;5.68;;;5.05;;
73898;SDS011;62234;50.892;12.724;2023-06-22T13:57:59;6.30;;;5.70;;
73898;SDS011;62234;50.892;12.724;2023-06-22T14:00:24;5.80;;;5.30;;
73898;SDS011;62234;50.892;12.724;2023-06-22T14:02:50;6.00;;;5.35;;
73898;SDS011;62234;50.892;12.724;2023-06-22T14:05:16;5.88;;;5.20;;
73898;SDS011;62234;50.892;12.724;2023-06-22T14:07:42;6.00;;;5.43;;
73898;SDS011;62234;50.892;12.724;2023-06-22T14:10:08;5.95;;;5.40;;
73898;SDS011;62234;50.892;12.724;2023-06-22T14:12:34;6.10;;;5.50;;
73898;SDS011;62234;50.892;12.724;2023-06-22T14:15:00;7.22;;;5.65;;
73898;SDS011;62234;50.892;12.724;2023-06-22T14:17:26;5.63;;;5.10;;
73898;SDS011;62234;50.892;12.724;2023-06-22T14:19:52;5.50;;;5.00;;
73898;SDS011;62234;50.892;12.724;2023-06-22T14:22:18;7.05;;;5.43;;
73898;SDS011;62234;50.892;12.724;2023-06-22T14:24:45;6.18;;;5.53;;
73898;SDS011;62234;50.892;12.724;2023-06-22T14:27:11;6.00;;;5.45;;
73898;SDS011;62234;50.892;12.724;2023-06-22T14:29:37;6.88;;;6.20;;
73898;SDS011;62234;50.892;12.724;2023-06-22T14:32:03;6.13;;;5.57;;
73898;SDS011;62234;50.892;12.724;2023-06-22T14:34:31;6.22;;;5.00;;
73898;SDS011;62234;50.892;12.724;2023-06-22T14:36:57;6.05;;;5.45;;
73898;SDS011;62234;50.892;12.724;2023-06-22T14:39:23;6.82;;;6.03;;